Time;durP1;ratioP1;P1;durP2;ratioP2;P2;SDS_P1;SDS_P2;PMS_P1;PMS_P2;Temp;Humidity;BMP_temperature;BMP_pressure;BME280_temperature;BME280_humidity;BME280_pressure;Samples;Min_cycle;Max_cycle;Signal;HPM_P1;HPM_P2
2022/06/23 00:01:28;;;;;;;1.15;1.05;;;15.90;59.30;15.90;100255.00;;;;5031758;27;88714;-65
2022/06/23 00:03:55;;;;;;;1.27;1.17;;;15.90;59.50;15.90;100263.00;;;;5048809;27;87445;-65
2022/06/23 00:06:35;;;;;;;1.00;1.00;;;15.80;59.70;15.80;100260.00;;;;5043691;27;87631;-66
2022/06/23 00:09:19;;;;;;;1.20;1.10;;;15.80;60.00;15.70;100255.00;;;;5035080;27;86667;-66
2022/06/23 00:11:49;;;;;;;2.47;1.85;;;15.70;60.00;15.60;100253.00;;;;5028271;28;108988;-66
2022/06/23 00:14:15;;;;;;;2.65;1.20;;;15.60;61.10;15.60;100251.00;;;;5033430;28;87304;-66
2022/06/23 00:16:41;;;;;;;2.08;1.85;;;15.60;60.50;15.60;100260.00;;;;5044723;27;108874;-65
2022/06/23 00:19:13;;;;;;;1.35;1.10;;;15.50;60.80;15.60;100260.00;;;;5053911;27;87386;-65
2022/06/23 00:21:43;;;;;;;1.50;0.95;;;15.50;61.10;15.60;100255.00;;;;5038781;27;88568;-66
2022/06/23 00:24:25;;;;;;;1.50;1.20;;;15.50;61.10;15.50;100261.00;;;;5031641;28;101725;-65
2022/06/23 00:26:53;;;;;;;1.27;1.15;;;15.50;61.30;15.50;100263.00;;;;5046048;27;110033;-65
2022/06/23 00:29:22;;;;;;;1.35;1.10;;;15.40;61.40;15.50;100260.00;;;;5037349;27;107549;-66
2022/06/23 00:31:58;;;;;;;1.80;1.55;;;15.40;61.60;15.40;100263.00;;;;5044609;27;90828;-65
2022/06/23 00:35:01;;;;;;;1.63;1.52;;;15.40;62.00;15.40;100263.00;;;;5052229;27;88786;-66
2022/06/23 00:37:28;;;;;;;2.57;1.73;;;15.40;62.10;15.40;100274.00;;;;5033848;27;87398;-65
2022/06/23 00:40:04;;;;;;;2.83;1.58;;;15.30;62.20;15.40;100275.00;;;;5023183;28;108537;-65
2022/06/23 00:43:09;;;;;;;1.43;1.30;;;15.30;62.50;15.20;100279.00;;;;5049887;27;89537;-65
2022/06/23 00:45:46;;;;;;;1.58;1.48;;;15.20;62.80;15.20;100272.00;;;;5051347;27;117695;-66
2022/06/23 00:48:31;;;;;;;2.83;1.00;;;15.20;63.10;15.10;100274.00;;;;5035286;27;87412;-66
2022/06/23 00:51:15;;;;;;;2.90;1.10;;;15.10;63.50;15.00;100275.00;;;;5037057;27;87513;-66
2022/06/23 00:54:21;;;;;;;1.27;1.10;;;15.00;63.80;14.90;100279.00;;;;5032201;28;87526;-66
2022/06/23 00:57:04;;;;;;;1.90;1.13;;;15.00;64.30;14.90;100280.00;;;;5033395;27;87697;-66
2022/06/23 00:59:42;;;;;;;2.13;1.83;;;14.90;64.50;14.80;100281.00;;;;5033520;27;86950;-67
2022/06/23 01:02:32;;;;;;;1.20;1.10;;;14.80;64.80;14.80;100278.00;;;;5047295;27;99413;-66
2022/06/23 01:05:38;;;;;;;1.63;1.40;;;14.80;65.20;14.70;100284.00;;;;5051043;27;102630;-66
2022/06/23 01:08:29;;;;;;;0.97;0.90;;;14.80;65.60;14.70;100283.00;;;;5052244;27;108954;-66
2022/06/23 01:11:02;;;;;;;1.40;1.30;;;14.70;65.70;14.70;100288.00;;;;5042250;27;88298;-66
2022/06/23 01:13:51;;;;;;;0.90;0.90;;;14.70;66.00;14.70;100296.00;;;;5031644;28;87421;-66
2022/06/23 01:16:24;;;;;;;1.17;1.07;;;14.70;66.50;14.70;100307.00;;;;5026762;27;87657;-66
2022/06/23 01:19:24;;;;;;;1.43;1.30;;;14.60;66.90;14.60;100304.00;;;;5019353;28;96606;-67
2022/06/23 01:21:58;;;;;;;2.70;1.77;;;14.60;67.60;14.60;100308.00;;;;5034785;27;87566;-66
2022/06/23 01:24:48;;;;;;;1.70;1.60;;;14.50;68.00;14.50;100313.00;;;;5031995;27;88632;-67
2022/06/23 01:28:01;;;;;;;1.20;1.10;;;14.50;68.50;14.40;100308.00;;;;5030156;28;107189;-66
2022/06/23 01:30:33;;;;;;;2.67;1.60;;;14.50;69.00;14.40;100314.00;;;;5052857;27;87108;-66
2022/06/23 01:33:17;;;;;;;1.83;1.73;;;14.40;69.30;14.40;100318.00;;;;5021957;28;87102;-67
2022/06/23 01:36:04;;;;;;;1.37;1.27;;;14.40;69.90;14.30;100319.00;;;;5019145;28;87420;-66
2022/06/23 01:39:01;;;;;;;2.67;1.20;;;14.30;70.90;14.20;100332.00;;;;5028730;27;89266;-67
2022/06/23 01:41:43;;;;;;;1.60;1.40;;;14.20;71.20;14.20;100332.00;;;;5027421;27;88141;-66
2022/06/23 01:44:33;;;;;;;1.67;1.53;;;14.20;71.60;14.10;100322.00;;;;5017111;28;87587;-66
2022/06/23 01:47:00;;;;;;;2.00;1.90;;;14.10;72.10;14.10;100321.00;;;;5046757;27;87374;-67
2022/06/23 01:49:40;;;;;;;2.40;1.87;;;14.00;72.50;14.00;100319.00;;;;5055978;27;87566;-66
2022/06/23 01:52:17;;;;;;;1.63;1.53;;;14.00;73.00;14.00;100318.00;;;;5020737;28;111473;-66
2022/06/23 01:54:44;;;;;;;1.97;1.47;;;14.00;73.60;13.90;100331.00;;;;5049258;27;87471;-66
2022/06/23 01:57:30;;;;;;;2.33;1.73;;;13.90;74.00;13.90;100332.00;;;;5052032;27;89283;-66
2022/06/23 02:00:20;;;;;;;2.00;1.90;;;13.90;74.30;13.80;100338.00;;;;5034020;28;87716;-67
2022/06/23 02:03:00;;;;;;;2.07;1.67;;;13.80;74.90;13.80;100341.00;;;;5050355;27;88542;-66
2022/06/23 02:05:35;;;;;;;3.03;2.40;;;13.80;75.40;13.70;100337.00;;;;5053360;27;95050;-66
2022/06/23 02:08:46;;;;;;;2.40;1.90;;;13.70;75.80;13.60;100345.00;;;;5055752;27;87268;-66
2022/06/23 02:11:37;;;;;;;1.87;1.67;;;13.70;76.20;13.60;100347.00;;;;5028579;28;90000;-67
2022/06/23 02:14:40;;;;;;;1.20;1.10;;;13.60;76.60;13.50;100347.00;;;;5052231;27;87093;-67
2022/06/23 02:17:31;;;;;;;1.40;1.30;;;13.60;77.20;13.50;100353.00;;;;5046885;27;87333;-66
2022/06/23 02:20:26;;;;;;;2.27;1.57;;;13.50;77.40;13.50;100344.00;;;;5034628;28;87461;-66
2022/06/23 02:23:21;;;;;;;2.50;2.03;;;13.50;78.00;13.50;100360.00;;;;5049263;27;87484;-66
2022/06/23 02:26:30;;;;;;;1.70;1.60;;;13.50;78.90;13.30;100351.00;;;;5053774;27;110156;-67
2022/06/23 02:29:11;;;;;;;1.97;1.80;;;13.40;79.20;13.30;100349.00;;;;5060736;27;99660;-66
2022/06/23 02:32:03;;;;;;;2.20;1.57;;;13.30;79.70;13.20;100361.00;;;;5057910;27;99356;-66
2022/06/23 02:34:51;;;;;;;2.50;1.77;;;13.30;80.40;13.20;100355.00;;;;5034174;27;89444;-66
2022/06/23 02:37:51;;;;;;;2.53;2.03;;;13.20;80.90;13.10;100341.00;;;;5052815;27;112417;-66
2022/06/23 02:40:34;;;;;;;3.00;1.90;;;13.20;81.40;13.10;100352.00;;;;5053320;27;87294;-66
2022/06/23 02:43:18;;;;;;;2.40;1.97;;;13.10;82.00;13.00;100354.00;;;;5048487;27;101755;-66
2022/06/23 02:45:52;;;;;;;2.20;2.00;;;13.00;82.70;13.00;100351.00;;;;5053750;27;87917;-66
2022/06/23 02:49:10;;;;;;;2.83;1.97;;;13.00;83.20;12.90;100352.00;;;;5052022;27;110081;-66
2022/06/23 02:52:15;;;;;;;2.50;1.80;;;13.00;83.80;12.90;100355.00;;;;5062802;27;86946;-66
2022/06/23 02:55:17;;;;;;;2.47;1.90;;;12.90;84.30;12.90;100363.00;;;;5001182;27;88228;-66
2022/06/23 02:57:51;;;;;;;2.17;1.80;;;12.90;84.80;12.90;100365.00;;;;5034299;27;87528;-67
2022/06/23 03:00:45;;;;;;;2.37;1.97;;;12.90;85.20;12.80;100361.00;;;;5032535;27;103067;-67
2022/06/23 03:03:43;;;;;;;1.47;1.37;;;12.80;85.80;12.80;100377.00;;;;5048941;27;88522;-66
2022/06/23 03:06:38;;;;;;;3.57;2.07;;;12.80;86.10;12.70;100373.00;;;;5032236;27;87134;-66
2022/06/23 03:09:37;;;;;;;2.10;1.47;;;12.80;86.60;12.80;100377.00;;;;5052648;27;89160;-66
2022/06/23 03:12:12;;;;;;;4.67;2.43;;;12.70;86.90;12.70;100377.00;;;;5046147;27;87575;-66
2022/06/23 03:15:15;;;;;;;3.93;1.90;;;12.70;87.40;12.70;100375.00;;;;5033788;27;87463;-66
2022/06/23 03:17:52;;;;;;;2.10;1.67;;;12.70;87.60;12.70;100371.00;;;;5031000;27;101797;-66
2022/06/23 03:20:51;;;;;;;1.93;1.73;;;12.70;88.20;12.70;100372.00;;;;5051322;27;108445;-66
2022/06/23 03:23:47;;;;;;;1.70;1.60;;;12.70;88.40;12.70;100368.00;;;;5037285;27;87206;-66
2022/06/23 03:26:29;;;;;;;3.00;1.43;;;12.70;88.70;12.70;100373.00;;;;5033386;27;102411;-66
2022/06/23 03:29:29;;;;;;;1.93;1.77;;;12.70;89.10;12.70;100382.00;;;;5033914;28;98667;-66
2022/06/23 03:32:16;;;;;;;3.17;1.43;;;12.70;89.30;12.70;100378.00;;;;5027931;27;89457;-66
2022/06/23 03:35:12;;;;;;;1.70;1.53;;;12.70;89.80;12.70;100382.00;;;;5033318;27;105430;-67
2022/06/23 03:38:00;;;;;;;2.97;2.30;;;12.70;90.00;12.80;100388.00;;;;5051945;27;86985;-66
2022/06/23 03:43:31;;;;;;;4.63;2.60;;;12.80;90.30;12.90;100396.00;;;;5036722;27;87702;-66
2022/06/23 03:46:21;;;;;;;6.40;2.53;;;12.90;90.50;13.00;100396.00;;;;5032793;28;116628;-66
2022/06/23 03:48:53;;;;;;;2.07;1.93;;;12.90;90.70;13.00;100399.00;;;;5034060;28;87438;-66
2022/06/23 03:51:29;;;;;;;1.73;1.57;;;13.00;90.80;13.10;100392.00;;;;5034696;28;86646;-66
2022/06/23 03:54:13;;;;;;;2.07;1.93;;;13.00;90.90;13.10;100405.00;;;;5046920;27;111328;-66
2022/06/23 03:56:52;;;;;;;2.03;1.90;;;13.10;91.10;13.20;100400.00;;;;5031624;27;107625;-66
2022/06/23 03:59:28;;;;;;;3.80;2.17;;;13.20;91.20;13.30;100412.00;;;;5032194;28;101024;-66
2022/06/23 04:02:04;;;;;;;1.40;1.30;;;13.20;91.20;13.40;100417.00;;;;5047198;27;87325;-66
2022/06/23 04:04:54;;;;;;;2.83;2.17;;;13.30;91.20;13.50;100413.00;;;;5030533;27;87569;-66
2022/06/23 04:07:49;;;;;;;2.03;1.83;;;13.40;91.30;13.60;100417.00;;;;5015516;28;89129;-66
2022/06/23 04:10:33;;;;;;;2.43;2.23;;;13.50;91.30;13.80;100421.00;;;;5052496;27;86893;-66
2022/06/23 04:13:33;;;;;;;2.20;1.90;;;13.70;91.50;13.90;100433.00;;;;5052838;27;98860;-66
2022/06/23 04:16:10;;;;;;;2.80;2.03;;;13.70;91.50;14.10;100431.00;;;;5051598;27;111070;-66
2022/06/23 04:18:46;;;;;;;2.43;2.30;;;13.90;91.90;14.20;100427.00;;;;5046536;27;108250;-66
2022/06/23 04:21:20;;;;;;;2.80;2.17;;;14.10;91.90;14.30;100432.00;;;;5034204;28;86942;-66
2022/06/23 04:23:53;;;;;;;2.30;1.97;;;14.20;92.20;14.50;100427.00;;;;5031121;28;98928;-65
2022/06/23 04:26:40;;;;;;;2.37;2.13;;;14.30;91.80;14.60;100433.00;;;;5032808;27;111216;-65
2022/06/23 04:29:34;;;;;;;2.53;2.27;;;14.50;91.60;14.80;100437.00;;;;5052388;27;109622;-66
2022/06/23 04:32:15;;;;;;;3.07;2.87;;;14.60;91.50;14.90;100449.00;;;;5039773;27;86903;-65
2022/06/23 04:35:20;;;;;;;2.83;2.00;;;14.80;91.40;15.10;100449.00;;;;5036973;27;87643;-64
2022/06/23 04:38:20;;;;;;;2.27;1.83;;;14.90;91.30;15.20;100454.00;;;;5034184;27;87722;-66
2022/06/23 04:40:53;;;;;;;3.80;2.37;;;15.10;91.20;15.40;100441.00;;;;5029499;28;88102;-65
2022/06/23 04:43:38;;;;;;;3.87;2.23;;;15.30;91.00;15.60;100449.00;;;;5050062;27;101930;-66
2022/06/23 04:46:19;;;;;;;2.03;1.83;;;15.40;90.90;15.80;100446.00;;;;5052463;27;86784;-65
2022/06/23 04:48:58;;;;;;;2.35;2.15;;;15.60;90.80;16.00;100460.00;;;;5051646;27;87409;-65
2022/06/23 04:51:38;;;;;;;1.77;1.67;;;15.80;90.60;16.20;100460.00;;;;5051235;27;87658;-66
2022/06/23 04:54:10;;;;;;;2.00;1.80;;;16.00;90.30;16.40;100468.00;;;;5046127;27;89119;-65
2022/06/23 04:56:57;;;;;;;3.88;2.25;;;16.20;90.10;16.60;100470.00;;;;5053522;27;90965;-65
2022/06/23 04:59:50;;;;;;;3.50;2.20;;;16.40;90.00;16.70;100476.00;;;;5018099;28;115213;-66
2022/06/23 05:02:41;;;;;;;4.25;2.38;;;16.60;89.60;16.90;100479.00;;;;5032892;27;88324;-66
2022/06/23 05:05:24;;;;;;;2.78;2.22;;;16.70;89.30;17.10;100480.00;;;;5030672;28;101198;-65
2022/06/23 05:07:55;;;;;;;2.50;1.95;;;16.90;89.10;17.30;100480.00;;;;5049235;27;102178;-65
2022/06/23 05:10:35;;;;;;;2.15;2.00;;;17.10;88.90;17.50;100483.00;;;;5052263;27;87395;-65
2022/06/23 05:13:09;;;;;;;6.05;2.38;;;17.30;89.10;17.60;100483.00;;;;5039037;27;87042;-65
2022/06/23 05:15:42;;;;;;;2.47;2.22;;;17.40;88.60;17.80;100482.00;;;;5031455;27;88778;-65
2022/06/23 05:18:15;;;;;;;2.60;2.33;;;17.60;88.20;18.00;100485.00;;;;5036141;27;99925;-65
2022/06/23 05:20:55;;;;;;;3.90;2.90;;;17.70;88.70;18.20;100481.00;;;;5034715;28;89336;-66
2022/06/23 05:23:50;;;;;;;2.25;1.90;;;18.00;87.50;18.50;100479.00;;;;5034107;27;112833;-65
2022/06/23 05:26:19;;;;;;;2.03;1.90;;;18.20;86.80;18.80;100481.00;;;;5045360;27;87615;-66
2022/06/23 05:29:04;;;;;;;2.17;2.03;;;18.50;86.10;19.00;100486.00;;;;5038695;27;87485;-65
2022/06/23 05:31:35;;;;;;;4.35;2.10;;;18.80;85.40;19.30;100483.00;;;;5015313;28;103287;-66
2022/06/23 05:34:19;;;;;;;3.05;2.20;;;19.00;84.50;19.50;100478.00;;;;5014086;28;94750;-65
2022/06/23 05:37:10;;;;;;;2.15;1.95;;;19.20;83.50;19.70;100493.00;;;;5018984;28;86886;-66
2022/06/23 05:39:44;;;;;;;1.92;1.83;;;19.40;82.80;19.90;100482.00;;;;5000691;28;100230;-65
2022/06/23 05:42:28;;;;;;;2.75;2.47;;;19.70;82.00;20.20;100485.00;;;;5018517;28;88280;-65
2022/06/23 05:45:11;;;;;;;2.35;2.15;;;19.90;81.30;20.40;100494.00;;;;5003963;28;93970;-65
2022/06/23 05:47:38;;;;;;;2.38;2.17;;;20.20;80.40;20.70;100488.00;;;;5013254;28;87900;-65
2022/06/23 05:50:15;;;;;;;2.88;2.60;;;20.40;80.10;20.90;100483.00;;;;5029232;28;107837;-65
2022/06/23 05:52:59;;;;;;;2.83;2.47;;;20.60;78.00;21.00;100495.00;;;;5014780;28;88162;-67
2022/06/23 05:55:43;;;;;;;2.90;1.95;;;20.80;76.70;21.20;100489.00;;;;5017334;28;87835;-65
2022/06/23 05:58:24;;;;;;;4.85;2.08;;;21.00;75.60;21.30;100490.00;;;;5030475;28;93330;-65
2022/06/23 06:01:06;;;;;;;2.60;2.40;;;21.10;74.90;21.50;100492.00;;;;5016662;28;102739;-65
2022/06/23 06:03:50;;;;;;;2.33;2.13;;;21.30;74.10;21.80;100497.00;;;;5034506;28;101645;-65
2022/06/23 06:06:15;;;;;;;3.03;1.70;;;21.50;73.20;22.10;100501.00;;;;5035364;28;103971;-66
2022/06/23 06:11:46;;;;;;;3.80;2.13;;;22.10;71.30;22.60;100502.00;;;;4999902;28;87273;-66
2022/06/23 06:14:15;;;;;;;2.22;2.03;;;22.40;69.70;22.90;100511.00;;;;5015122;28;89900;-65
2022/06/23 06:16:42;;;;;;;3.00;2.20;;;22.60;68.40;23.10;100506.00;;;;5015469;28;88113;-66
2022/06/23 06:19:16;;;;;;;2.53;1.90;;;22.80;66.70;23.30;100508.00;;;;5023047;28;95499;-66
2022/06/23 06:21:43;;;;;;;2.65;2.17;;;23.00;65.60;23.50;100514.00;;;;5016977;28;87346;-66
2022/06/23 06:24:11;;;;;;;2.00;1.90;;;23.20;64.80;23.70;100509.00;;;;5029634;28;108483;-66
2022/06/23 06:26:45;;;;;;;2.13;1.90;;;23.40;63.80;24.00;100514.00;;;;5015783;27;107984;-65
2022/06/23 06:29:16;;;;;;;1.60;1.50;;;23.70;62.70;24.20;100507.00;;;;5026653;27;98954;-65
2022/06/23 06:31:50;;;;;;;2.42;1.83;;;23.90;61.80;24.50;100515.00;;;;5054283;27;100514;-65
2022/06/23 06:34:40;;;;;;;2.13;1.65;;;24.20;60.70;24.70;100512.00;;;;5054883;27;87735;-66
2022/06/23 06:37:13;;;;;;;1.98;1.67;;;24.50;59.80;24.90;100517.00;;;;5048367;27;105330;-65
2022/06/23 06:39:59;;;;;;;2.13;1.92;;;24.60;58.60;25.10;100515.00;;;;5026940;28;88626;-65
2022/06/23 06:42:59;;;;;;;2.95;2.42;;;24.80;57.70;25.30;100518.00;;;;5050398;27;104453;-66
2022/06/23 06:45:31;;;;;;;2.45;1.92;;;25.00;57.10;25.50;100520.00;;;;5046554;27;88485;-66
2022/06/23 06:47:56;;;;;;;1.83;1.70;;;25.20;56.20;25.70;100518.00;;;;5041240;27;110170;-67
2022/06/23 06:50:40;;;;;;;2.50;1.92;;;25.40;55.50;26.00;100517.00;;;;5033192;28;87366;-66
2022/06/23 06:53:37;;;;;;;2.45;2.25;;;25.70;54.90;26.20;100528.00;;;;5034067;27;87887;-65
2022/06/23 06:56:38;;;;;;;2.80;1.88;;;25.90;53.90;26.40;100526.00;;;;5050288;27;87595;-66
2022/06/23 06:59:30;;;;;;;3.03;2.42;;;26.10;53.40;26.70;100525.00;;;;5050085;27;87172;-66
2022/06/23 07:02:06;;;;;;;2.08;1.90;;;26.40;53.10;27.00;100527.00;;;;5034457;27;87180;-67
2022/06/23 07:04:45;;;;;;;2.35;1.63;;;26.70;52.50;27.20;100533.00;;;;5034979;27;86953;-68
2022/06/23 07:07:18;;;;;;;2.20;1.83;;;26.80;51.60;27.40;100535.00;;;;5052274;27;88632;-69
2022/06/23 07:10:06;;;;;;;1.73;1.63;;;27.10;51.30;27.70;100538.00;;;;5052458;27;91025;-69
2022/06/23 07:12:56;;;;;;;1.92;1.55;;;27.40;50.80;28.00;100542.00;;;;5053289;27;87427;-69
2022/06/23 07:15:42;;;;;;;2.22;1.60;;;27.60;50.20;28.20;100534.00;;;;5052972;27;87378;-69
2022/06/23 07:18:16;;;;;;;1.55;1.45;;;27.90;49.50;28.50;100541.00;;;;5038336;27;100200;-69
2022/06/23 07:20:56;;;;;;;2.03;1.83;;;28.10;48.80;28.60;100546.00;;;;5034749;27;91183;-69
2022/06/23 07:23:33;;;;;;;1.67;1.33;;;28.30;48.00;28.80;100541.00;;;;5053839;27;103441;-68
2022/06/23 07:26:32;;;;;;;1.50;1.40;;;28.50;46.70;28.90;100541.00;;;;5052612;27;94929;-69
2022/06/23 07:29:38;;;;;;;1.98;1.75;;;28.60;45.20;28.80;100548.00;;;;5033141;27;87917;-70
2022/06/23 07:32:29;;;;;;;2.60;1.60;;;28.60;44.80;28.80;100537.00;;;;4998225;27;87587;-69
2022/06/23 07:35:08;;;;;;;2.72;1.65;;;28.60;45.00;29.00;100554.00;;;;5033420;27;102150;-69
2022/06/23 07:37:43;;;;;;;2.28;1.58;;;28.70;45.40;29.30;100548.00;;;;5033827;27;95019;-69
2022/06/23 07:40:11;;;;;;;1.92;1.73;;;28.90;45.50;29.60;100553.00;;;;5042140;27;108496;-70
2022/06/23 07:43:07;;;;;;;1.65;1.52;;;29.20;45.20;29.90;100553.00;;;;5041482;27;87536;-70
2022/06/23 07:45:48;;;;;;;5.53;1.45;;;29.50;44.90;30.10;100549.00;;;;5032469;28;87366;-70
2022/06/23 07:48:14;;;;;;;1.67;1.55;;;29.80;44.20;30.30;100560.00;;;;5018306;27;104165;-70
2022/06/23 07:50:39;;;;;;;1.48;1.38;;;30.00;43.50;30.30;100553.00;;;;5032355;27;109611;-70
2022/06/23 07:53:10;;;;;;;1.50;1.40;;;30.00;43.10;30.40;100547.00;;;;5053664;27;116958;-70
2022/06/23 07:55:47;;;;;;;4.22;1.88;;;30.10;43.00;30.60;100556.00;;;;5051969;27;104176;-70
2022/06/23 07:58:15;;;;;;;1.98;1.50;;;30.30;42.60;30.80;100553.00;;;;5041054;27;87268;-70
2022/06/23 08:00:44;;;;;;;2.38;1.45;;;30.50;42.80;31.10;100556.00;;;;5047316;27;93134;-70
2022/06/23 08:03:23;;;;;;;1.95;1.75;;;30.70;42.50;31.30;100556.00;;;;5048417;27;110017;-70
2022/06/23 08:05:58;;;;;;;3.00;2.03;;;31.00;42.10;31.50;100553.00;;;;5035000;27;100931;-70
2022/06/23 08:08:30;;;;;;;6.45;2.30;;;31.20;40.40;31.60;100553.00;;;;5032597;28;95711;-71
2022/06/23 08:13:51;;;;;;;1.83;1.52;;;31.30;38.50;31.80;100556.00;;;;5034486;27;87757;-71
2022/06/23 08:19:16;;;;;;;2.45;1.58;;;31.70;38.30;32.30;100563.00;;;;5027758;27;86923;-69
2022/06/23 08:21:52;;;;;;;2.13;1.33;;;32.00;37.60;32.30;100554.00;;;;4988780;28;88011;-69
2022/06/23 08:24:23;;;;;;;3.08;1.35;;;32.00;36.30;32.30;100557.00;;;;4998694;27;87825;-69
2022/06/23 08:27:01;;;;;;;5.03;1.35;;;32.10;36.70;32.50;100563.00;;;;4993838;28;88858;-69
2022/06/23 08:29:48;;;;;;;1.20;1.10;;;32.20;37.50;32.60;100550.00;;;;4989417;27;87804;-68
2022/06/23 08:32:15;;;;;;;1.58;1.23;;;32.30;35.50;32.70;100551.00;;;;5008262;27;109375;-69
2022/06/23 08:34:55;;;;;;;0.98;0.90;;;32.40;34.30;32.70;100556.00;;;;5001644;27;87642;-68
2022/06/23 08:37:23;;;;;;;0.90;0.90;;;32.40;34.70;32.90;100548.00;;;;5007515;27;87888;-69
2022/06/23 08:40:00;;;;;;;1.33;0.90;;;32.50;34.60;33.00;100554.00;;;;5007307;27;87761;-69
2022/06/23 08:43:10;;;;;;;1.20;1.10;;;32.50;34.40;33.30;100558.00;;;;5012594;27;111374;-69
2022/06/23 08:46:23;;;;;;;2.20;1.30;;;32.90;34.10;33.50;100562.00;;;;5014078;27;87899;-70
2022/06/23 08:48:58;;;;;;;0.85;0.85;;;33.10;33.70;33.60;100556.00;;;;4949980;28;88120;-71
2022/06/23 08:52:20;;;;;;;0.90;0.90;;;33.20;32.70;33.40;100556.00;;;;5006248;27;87807;-71
2022/06/23 08:55:13;;;;;;;1.63;0.93;;;33.30;31.80;33.50;100550.00;;;;5008316;27;110712;-71
2022/06/23 08:57:45;;;;;;;2.03;1.35;;;33.20;32.00;33.60;100545.00;;;;5000124;27;110350;-70
2022/06/23 09:01:16;;;;;;;1.38;0.90;;;33.30;32.30;33.60;100543.00;;;;5001309;27;92781;-69
2022/06/23 09:03:58;;;;;;;1.00;1.00;;;33.30;31.30;33.50;100539.00;;;;4985943;27;88012;-70
2022/06/23 09:06:51;;;;;;;1.40;0.90;;;33.20;31.60;33.60;100544.00;;;;5012592;27;105724;-71
2022/06/23 09:09:42;;;;;;;1.42;0.93;;;33.20;31.60;33.70;100542.00;;;;5009889;27;89582;-71
2022/06/23 09:12:28;;;;;;;0.80;0.80;;;33.30;31.80;33.90;100539.00;;;;4995567;27;98498;-71
2022/06/23 09:15:23;;;;;;;1.08;0.85;;;33.50;31.70;34.30;100527.00;;;;4995651;27;96480;-69
2022/06/23 09:17:59;;;;;;;0.73;0.73;;;33.70;31.60;34.50;100525.00;;;;5012187;27;90223;-69
2022/06/23 09:20:46;;;;;;;1.67;0.75;;;34.00;31.20;34.60;100521.00;;;;5006276;27;101235;-69
2022/06/23 09:23:55;;;;;;;6.72;0.90;;;34.20;30.90;34.80;100524.00;;;;5012317;27;88912;-71
2022/06/23 09:26:37;;;;;;;0.70;0.68;;;34.30;30.40;34.90;100528.00;;;;5015247;27;87946;-70
2022/06/23 09:29:57;;;;;;;1.33;0.63;;;34.40;29.80;34.90;100528.00;;;;5006873;27;88181;-69
2022/06/23 09:33:23;;;;;;;1.17;1.08;;;34.50;28.80;34.70;100525.00;;;;4995836;27;87957;-68
2022/06/23 09:36:33;;;;;;;1.50;1.40;;;34.40;28.20;34.60;100527.00;;;;4979076;27;87828;-69
2022/06/23 09:39:38;;;;;;;1.00;0.82;;;34.20;28.70;34.70;100521.00;;;;5009641;27;87882;-68
2022/06/23 09:42:30;;;;;;;0.93;0.80;;;34.20;29.00;34.80;100539.00;;;;5012570;27;89747;-68
2022/06/23 09:45:37;;;;;;;1.00;0.90;;;34.30;28.60;34.90;100531.00;;;;5009198;27;87241;-68
2022/06/23 09:48:11;;;;;;;2.75;0.73;;;34.40;28.00;34.90;100536.00;;;;4994592;27;87843;-70
2022/06/23 09:51:18;;;;;;;2.40;0.93;;;34.40;27.00;34.40;100529.00;;;;4986741;28;87792;-69
2022/06/23 09:54:36;;;;;;;2.25;0.70;;;34.20;27.20;34.10;100521.00;;;;4987789;27;91017;-70
2022/06/23 09:57:45;;;;;;;0.65;0.65;;;33.80;27.50;33.90;100523.00;;;;5009283;27;88109;-71
2022/06/23 10:00:39;;;;;;;1.15;0.95;;;33.60;27.70;34.10;100528.00;;;;4989336;27;88069;-72
2022/06/23 10:03:33;;;;;;;4.97;0.95;;;33.60;27.80;34.10;100520.00;;;;5000697;27;88063;-69
2022/06/23 10:06:22;;;;;;;2.78;0.77;;;33.60;27.20;33.60;100513.00;;;;5007029;27;88247;-69
2022/06/23 10:09:20;;;;;;;1.20;0.93;;;33.30;26.70;33.50;100518.00;;;;5015609;27;87955;-69
2022/06/23 10:12:34;;;;;;;0.98;0.88;;;33.10;27.70;33.60;100524.00;;;;5017831;27;87835;-69
2022/06/23 10:15:44;;;;;;;1.80;1.05;;;33.10;27.70;33.50;100517.00;;;;5016042;27;87061;-71
2022/06/23 10:19:06;;;;;;;3.50;1.20;;;33.10;27.20;33.50;100509.00;;;;5016750;27;95093;-71
2022/06/23 10:22:31;;;;;;;0.80;0.80;;;33.00;27.30;33.50;100509.00;;;;5015134;27;90084;-69
2022/06/23 10:25:18;;;;;;;1.35;0.75;;;33.00;27.10;33.90;100506.00;;;;5004942;27;103143;-68
2022/06/23 10:28:03;;;;;;;2.25;0.60;;;33.20;27.40;34.50;100501.00;;;;5000163;27;93314;-69
2022/06/23 10:30:49;;;;;;;1.27;0.68;;;33.60;27.50;35.00;100500.00;;;;5015246;27;88033;-68
2022/06/23 10:33:48;;;;;;;0.90;0.90;;;34.10;27.00;35.30;100501.00;;;;5017426;27;87914;-69
2022/06/23 10:37:00;;;;;;;1.20;0.77;;;34.50;26.50;35.60;100497.00;;;;5015501;27;87673;-69
2022/06/23 10:39:57;;;;;;;0.82;0.70;;;34.70;27.30;36.00;100492.00;;;;4954167;28;87937;-69
2022/06/23 10:42:34;;;;;;;0.70;0.70;;;35.10;27.40;36.40;100495.00;;;;4995616;27;88039;-69
2022/06/23 10:45:21;;;;;;;0.60;0.60;;;35.40;27.10;36.70;100491.00;;;;4995851;27;109973;-69
2022/06/23 10:48:32;;;;;;;0.73;0.73;;;35.80;27.00;37.00;100487.00;;;;5012501;27;87868;-69
2022/06/23 10:51:31;;;;;;;0.75;0.75;;;36.10;27.00;37.50;100498.00;;;;4994985;28;99256;-69
2022/06/23 10:54:16;;;;;;;2.33;1.00;;;36.50;26.50;37.90;100498.00;;;;5009367;27;88824;-69
2022/06/23 10:57:15;;;;;;;0.40;0.40;;;36.90;26.30;38.30;100486.00;;;;5015583;27;88090;-70
2022/06/23 11:00:06;;;;;;;0.68;0.65;;;37.30;26.00;38.70;100502.00;;;;4997572;28;87743;-71
2022/06/23 11:02:55;;;;;;;0.57;0.57;;;37.60;25.70;39.00;100503.00;;;;4990770;27;89928;-70
2022/06/23 11:05:58;;;;;;;0.73;0.60;;;38.00;25.40;39.40;100492.00;;;;5016944;27;87706;-70
2022/06/23 11:08:26;;;;;;;1.35;0.85;;;38.40;25.00;39.60;100483.00;;;;4997236;27;87654;-72
2022/06/23 11:11:40;;;;;;;0.65;0.65;;;38.60;24.60;39.70;100486.00;;;;4997071;28;87790;-72
2022/06/23 11:14:32;;;;;;;0.22;0.20;;;38.80;24.20;39.80;100478.00;;;;4996142;27;87186;-69
2022/06/23 11:17:23;;;;;;;0.43;0.43;;;38.90;24.30;39.90;100462.00;;;;5004755;27;87905;-70
2022/06/23 11:20:29;;;;;;;1.05;0.77;;;39.00;23.50;39.60;100474.00;;;;5014770;27;87885;-68
2022/06/23 11:23:28;;;;;;;0.75;0.50;;;38.90;22.80;39.30;100475.00;;;;5016764;27;88998;-72
2022/06/23 11:26:35;;;;;;;1.10;0.73;;;38.60;22.90;39.40;100474.00;;;;5014481;27;102455;-71
2022/06/23 11:29:36;;;;;;;2.05;0.85;;;38.60;23.40;39.10;100478.00;;;;5016116;27;88113;-69
2022/06/23 11:32:23;;;;;;;0.63;0.60;;;38.40;22.10;38.60;100468.00;;;;4996287;27;89888;-69
2022/06/23 11:35:07;;;;;;;0.57;0.55;;;38.00;22.60;38.60;100467.00;;;;4977876;27;88015;-72
2022/06/23 11:38:30;;;;;;;0.57;0.57;;;37.80;23.10;38.50;100464.00;;;;5004868;27;87810;-70
2022/06/23 11:41:35;;;;;;;1.35;0.75;;;37.80;23.10;38.70;100463.00;;;;5016422;27;109001;-69
2022/06/23 11:44:57;;;;;;;0.50;0.50;;;37.80;23.10;38.90;100461.00;;;;4995803;27;93294;-69
2022/06/23 11:47:54;;;;;;;1.52;0.65;;;38.00;23.10;39.20;100450.00;;;;5016127;27;87786;-71
2022/06/23 11:50:49;;;;;;;0.50;0.43;;;38.20;23.50;39.60;100455.00;;;;5015902;27;94707;-70
2022/06/23 11:53:45;;;;;;;0.50;0.50;;;38.50;23.30;39.90;100452.00;;;;5012866;27;111754;-71
2022/06/23 11:56:29;;;;;;;0.77;0.68;;;38.80;23.40;40.00;100452.00;;;;5016537;27;87975;-70
2022/06/23 11:59:03;;;;;;;1.70;1.00;;;39.10;22.90;40.20;100446.00;;;;5013976;27;102537;-71
2022/06/23 12:01:30;;;;;;;0.85;0.50;;;39.30;23.10;40.40;100448.00;;;;5007990;27;87679;-70
2022/06/23 12:05:09;;;;;;;0.75;0.75;;;39.40;23.00;40.60;100446.00;;;;5015462;27;88152;-70
2022/06/23 12:08:14;;;;;;;0.70;0.65;;;39.60;22.80;40.50;100436.00;;;;4942983;28;88015;-70
2022/06/23 12:10:40;;;;;;;0.80;0.70;;;39.80;21.70;39.80;100433.00;;;;5013731;27;87861;-70
2022/06/23 12:13:06;;;;;;;0.55;0.55;;;39.30;22.00;39.70;100439.00;;;;5004946;27;108654;-70
2022/06/23 12:15:40;;;;;;;0.60;0.60;;;39.00;22.40;39.70;100441.00;;;;4994085;28;87741;-70
2022/06/23 12:26:23;;;;;;;0.60;0.60;;;37.90;22.30;38.40;100427.00;;;;3176355;26;89383;-67
2022/06/23 12:29:14;;;;;;;0.77;0.70;;;37.70;22.70;38.30;100426.00;;;;4914275;28;88320;-67